sensor_id;sensor_type;location;lat;lon;timestamp;pressure;altitude;pressure_sealevel;temperature
48003;BMP280;33768;48.578;11.574;2023-05-10T00:00:59;95833.50;;;14.59
48003;BMP280;33768;48.578;11.574;2023-05-10T00:04:03;95829.31;;;14.58
48003;BMP280;33768;48.578;11.574;2023-05-10T00:07:07;95838.53;;;14.53
48003;BMP280;33768;48.578;11.574;2023-05-10T00:10:11;95834.47;;;14.37
48003;BMP280;33768;48.578;11.574;2023-05-10T00:13:15;95841.72;;;14.25
48003;BMP280;33768;48.578;11.574;2023-05-10T00:16:19;95842.69;;;14.20
48003;BMP280;33768;48.578;11.574;2023-05-10T00:19:23;95860.28;;;14.17
48003;BMP280;33768;48.578;11.574;2023-05-10T00:22:27;95850.75;;;14.18
48003;BMP280;33768;48.578;11.574;2023-05-10T00:25:31;95848.41;;;14.15
48003;BMP280;33768;48.578;11.574;2023-05-10T00:28:36;95852.09;;;14.10
48003;BMP280;33768;48.578;11.574;2023-05-10T00:31:40;95841.75;;;14.01
48003;BMP280;33768;48.578;11.574;2023-05-10T00:34:44;95846.16;;;13.97
48003;BMP280;33768;48.578;11.574;2023-05-10T00:37:49;95842.50;;;13.94
48003;BMP280;33768;48.578;11.574;2023-05-10T00:40:53;95842.84;;;13.98
48003;BMP280;33768;48.578;11.574;2023-05-10T00:44:04;95842.13;;;13.98
48003;BMP280;33768;48.578;11.574;2023-05-10T00:47:09;95842.13;;;13.98
48003;BMP280;33768;48.578;11.574;2023-05-10T00:50:14;95836.31;;;13.94
48003;BMP280;33768;48.578;11.574;2023-05-10T00:53:18;95835.94;;;13.90
48003;BMP280;33768;48.578;11.574;2023-05-10T00:56:23;95835.78;;;13.88
48003;BMP280;33768;48.578;11.574;2023-05-10T00:59:29;95820.63;;;13.87
48003;BMP280;33768;48.578;11.574;2023-05-10T01:02:34;95828.28;;;13.88
48003;BMP280;33768;48.578;11.574;2023-05-10T01:05:38;95835.63;;;13.86
48003;BMP280;33768;48.578;11.574;2023-05-10T01:08:43;95823.19;;;13.85
48003;BMP280;33768;48.578;11.574;2023-05-10T01:11:47;95830.53;;;13.82
48003;BMP280;33768;48.578;11.574;2023-05-10T01:14:51;95821.81;;;13.76
48003;BMP280;33768;48.578;11.574;2023-05-10T01:17:56;95831.88;;;13.74
48003;BMP280;33768;48.578;11.574;2023-05-10T01:35:02;95826.88;;;13.80
48003;BMP280;33768;48.578;11.574;2023-05-10T01:38:29;95824.81;;;13.88
48003;BMP280;33768;48.578;11.574;2023-05-10T01:41:45;95824.03;;;13.95
48003;BMP280;33768;48.578;11.574;2023-05-10T01:45:00;95826.75;;;14.02
48003;BMP280;33768;48.578;11.574;2023-05-10T01:48:08;95835.88;;;14.05
48003;BMP280;33768;48.578;11.574;2023-05-10T01:51:17;95817.50;;;14.14
48003;BMP280;33768;48.578;11.574;2023-05-10T01:54:24;95825.31;;;14.18
48003;BMP280;33768;48.578;11.574;2023-05-10T01:57:33;95830.56;;;14.23
48003;BMP280;33768;48.578;11.574;2023-05-10T02:00:40;95821.63;;;14.23
48003;BMP280;33768;48.578;11.574;2023-05-10T02:03:47;95834.06;;;14.24
48003;BMP280;33768;48.578;11.574;2023-05-10T02:06:54;95828.41;;;14.22
48003;BMP280;33768;48.578;11.574;2023-05-10T02:09:59;95841.41;;;14.21
48003;BMP280;33768;48.578;11.574;2023-05-10T02:13:06;95831.53;;;14.18
48003;BMP280;33768;48.578;11.574;2023-05-10T02:16:12;95833.97;;;14.14
48003;BMP280;33768;48.578;11.574;2023-05-10T02:19:17;95846.06;;;14.11
48003;BMP280;33768;48.578;11.574;2023-05-10T02:22:23;95837.66;;;14.09
48003;BMP280;33768;48.578;11.574;2023-05-10T02:25:29;95834.19;;;14.09
48003;BMP280;33768;48.578;11.574;2023-05-10T02:28:35;95839.03;;;14.18
48003;BMP280;33768;48.578;11.574;2023-05-10T02:31:39;95833.16;;;14.21
48003;BMP280;33768;48.578;11.574;2023-05-10T02:34:47;95838.50;;;14.19
48003;BMP280;33768;48.578;11.574;2023-05-10T02:37:56;95837.34;;;14.22
48003;BMP280;33768;48.578;11.574;2023-05-10T02:41:02;95836.88;;;14.16
48003;BMP280;33768;48.578;11.574;2023-05-10T02:44:08;95838.72;;;14.14
48003;BMP280;33768;48.578;11.574;2023-05-10T02:47:13;95843.81;;;14.17
48003;BMP280;33768;48.578;11.574;2023-05-10T02:50:18;95839.94;;;14.20
48003;BMP280;33768;48.578;11.574;2023-05-10T02:53:31;95833.00;;;14.19
48003;BMP280;33768;48.578;11.574;2023-05-10T02:56:36;95830.97;;;14.20
48003;BMP280;33768;48.578;11.574;2023-05-10T02:59:45;95833.50;;;14.25
48003;BMP280;33768;48.578;11.574;2023-05-10T03:02:49;95835.34;;;14.23
48003;BMP280;33768;48.578;11.574;2023-05-10T03:05:53;95835.34;;;14.23
48003;BMP280;33768;48.578;11.574;2023-05-10T03:09:00;95839.75;;;14.18
48003;BMP280;33768;48.578;11.574;2023-05-10T03:12:26;95842.91;;;14.15
48003;BMP280;33768;48.578;11.574;2023-05-10T03:19:30;95837.69;;;14.26
48003;BMP280;33768;48.578;11.574;2023-05-10T03:22:38;95839.88;;;14.28
48003;BMP280;33768;48.578;11.574;2023-05-10T03:25:46;95845.25;;;14.18
48003;BMP280;33768;48.578;11.574;2023-05-10T03:28:52;95847.34;;;14.10
48003;BMP280;33768;48.578;11.574;2023-05-10T03:31:58;95841.53;;;14.07
48003;BMP280;33768;48.578;11.574;2023-05-10T03:35:07;95849.75;;;14.07
48003;BMP280;33768;48.578;11.574;2023-05-10T03:38:12;95845.94;;;14.02
48003;BMP280;33768;48.578;11.574;2023-05-10T03:41:17;95853.09;;;13.98
48003;BMP280;33768;48.578;11.574;2023-05-10T03:44:21;95856.38;;;14.04
48003;BMP280;33768;48.578;11.574;2023-05-10T03:47:25;95849.91;;;14.08
48003;BMP280;33768;48.578;11.574;2023-05-10T03:50:29;95861.63;;;14.09
48003;BMP280;33768;48.578;11.574;2023-05-10T03:53:34;95857.81;;;14.05
48003;BMP280;33768;48.578;11.574;2023-05-10T03:56:38;95856.19;;;14.02
48003;BMP280;33768;48.578;11.574;2023-05-10T03:59:43;95855.84;;;13.98
48003;BMP280;33768;48.578;11.574;2023-05-10T04:02:47;95852.00;;;13.93
48003;BMP280;33768;48.578;11.574;2023-05-10T04:06:00;95857.34;;;13.91
48003;BMP280;33768;48.578;11.574;2023-05-10T04:09:04;95860.31;;;13.86
48003;BMP280;33768;48.578;11.574;2023-05-10T04:12:09;95855.78;;;13.81
48003;BMP280;33768;48.578;11.574;2023-05-10T04:15:13;95858.53;;;13.81
48003;BMP280;33768;48.578;11.574;2023-05-10T04:18:17;95869.81;;;13.85
48003;BMP280;33768;48.578;11.574;2023-05-10T04:21:21;95868.91;;;13.82
48003;BMP280;33768;48.578;11.574;2023-05-10T04:24:25;95874.81;;;13.79
48003;BMP280;33768;48.578;11.574;2023-05-10T04:27:29;95881.94;;;13.75
48003;BMP280;33768;48.578;11.574;2023-05-10T04:30:34;95882.50;;;13.73
48003;BMP280;33768;48.578;11.574;2023-05-10T04:33:38;95881.09;;;13.65
48003;BMP280;33768;48.578;11.574;2023-05-10T04:36:42;95881.00;;;13.48
48003;BMP280;33768;48.578;11.574;2023-05-10T04:39:46;95881.22;;;13.43
48003;BMP280;33768;48.578;11.574;2023-05-10T04:42:50;95885.59;;;13.45
48003;BMP280;33768;48.578;11.574;2023-05-10T04:45:56;95893.22;;;13.54
48003;BMP280;33768;48.578;11.574;2023-05-10T04:49:00;95892.56;;;13.39
48003;BMP280;33768;48.578;11.574;2023-05-10T04:52:04;95896.06;;;13.32
48003;BMP280;33768;48.578;11.574;2023-05-10T04:55:09;95902.84;;;13.31
48003;BMP280;33768;48.578;11.574;2023-05-10T04:58:13;95906.91;;;13.23
48003;BMP280;33768;48.578;11.574;2023-05-10T05:01:18;95909.84;;;13.10
48003;BMP280;33768;48.578;11.574;2023-05-10T05:04:22;95909.13;;;13.10
48003;BMP280;33768;48.578;11.574;2023-05-10T05:07:27;95914.59;;;13.10
48003;BMP280;33768;48.578;11.574;2023-05-10T05:10:31;95918.63;;;13.16
48003;BMP280;33768;48.578;11.574;2023-05-10T05:13:35;95927.34;;;13.22
48003;BMP280;33768;48.578;11.574;2023-05-10T05:16:39;95930.06;;;13.29
48003;BMP280;33768;48.578;11.574;2023-05-10T05:19:44;95931.41;;;13.21
48003;BMP280;33768;48.578;11.574;2023-05-10T05:22:48;95917.13;;;13.22
48003;BMP280;33768;48.578;11.574;2023-05-10T05:25:52;95934.66;;;13.27
48003;BMP280;33768;48.578;11.574;2023-05-10T05:28:57;95940.66;;;13.33
48003;BMP280;33768;48.578;11.574;2023-05-10T05:32:01;95951.59;;;13.33
48003;BMP280;33768;48.578;11.574;2023-05-10T05:35:05;95947.94;;;13.38
48003;BMP280;33768;48.578;11.574;2023-05-10T05:38:09;95939.00;;;13.37
48003;BMP280;33768;48.578;11.574;2023-05-10T05:41:13;95955.06;;;13.41
48003;BMP280;33768;48.578;11.574;2023-05-10T05:44:17;95952.16;;;13.39
48003;BMP280;33768;48.578;11.574;2023-05-10T05:47:22;95949.03;;;13.35
48003;BMP280;33768;48.578;11.574;2023-05-10T05:50:25;95964.56;;;13.40
48003;BMP280;33768;48.578;11.574;2023-05-10T05:53:30;95956.34;;;13.40
48003;BMP280;33768;48.578;11.574;2023-05-10T05:56:34;95970.03;;;13.40
48003;BMP280;33768;48.578;11.574;2023-05-10T05:59:38;95977.84;;;13.50
48003;BMP280;33768;48.578;11.574;2023-05-10T06:02:47;95963.44;;;13.43
48003;BMP280;33768;48.578;11.574;2023-05-10T06:05:51;95985.38;;;13.43
48003;BMP280;33768;48.578;11.574;2023-05-10T06:08:55;95986.28;;;13.45
48003;BMP280;33768;48.578;11.574;2023-05-10T06:11:59;95985.75;;;13.46
48003;BMP280;33768;48.578;11.574;2023-05-10T06:15:04;95993.41;;;13.48
48003;BMP280;33768;48.578;11.574;2023-05-10T06:18:09;95989.38;;;13.56
48003;BMP280;33768;48.578;11.574;2023-05-10T06:21:14;96001.22;;;13.59
48003;BMP280;33768;48.578;11.574;2023-05-10T06:24:18;95997.34;;;13.69
48003;BMP280;33768;48.578;11.574;2023-05-10T06:27:22;96001.31;;;13.75
48003;BMP280;33768;48.578;11.574;2023-05-10T06:30:27;96010.81;;;13.82
48003;BMP280;33768;48.578;11.574;2023-05-10T06:33:32;96013.34;;;13.87
48003;BMP280;33768;48.578;11.574;2023-05-10T06:36:36;96013.09;;;14.07
48003;BMP280;33768;48.578;11.574;2023-05-10T06:39:40;96018.84;;;14.26
48003;BMP280;33768;48.578;11.574;2023-05-10T06:42:45;96022.78;;;14.40
48003;BMP280;33768;48.578;11.574;2023-05-10T06:45:50;96015.88;;;14.56
48003;BMP280;33768;48.578;11.574;2023-05-10T06:48:54;96021.03;;;14.76
48003;BMP280;33768;48.578;11.574;2023-05-10T06:51:58;96032.09;;;14.93
48003;BMP280;33768;48.578;11.574;2023-05-10T06:55:04;96027.56;;;15.12
48003;BMP280;33768;48.578;11.574;2023-05-10T06:58:08;96026.34;;;15.22
48003;BMP280;33768;48.578;11.574;2023-05-10T07:01:12;96024.06;;;15.28
48003;BMP280;33768;48.578;11.574;2023-05-10T07:04:16;96029.16;;;15.32
48003;BMP280;33768;48.578;11.574;2023-05-10T07:07:21;96046.06;;;15.28
48003;BMP280;33768;48.578;11.574;2023-05-10T07:10:25;96042.34;;;15.33
48003;BMP280;33768;48.578;11.574;2023-05-10T07:13:30;96039.78;;;15.52
48003;BMP280;33768;48.578;11.574;2023-05-10T07:16:35;96035.66;;;15.60
48003;BMP280;33768;48.578;11.574;2023-05-10T07:19:39;96041.31;;;15.62
48003;BMP280;33768;48.578;11.574;2023-05-10T07:22:43;96041.38;;;15.71
48003;BMP280;33768;48.578;11.574;2023-05-10T07:25:48;96044.47;;;15.75
48003;BMP280;33768;48.578;11.574;2023-05-10T07:28:51;96056.53;;;15.63
48003;BMP280;33768;48.578;11.574;2023-05-10T07:31:56;96041.38;;;15.55
48003;BMP280;33768;48.578;11.574;2023-05-10T07:35:00;96053.84;;;15.39
48003;BMP280;33768;48.578;11.574;2023-05-10T07:38:04;96047.88;;;15.09
48003;BMP280;33768;48.578;11.574;2023-05-10T07:41:09;96058.00;;;14.82
48003;BMP280;33768;48.578;11.574;2023-05-10T07:44:13;96045.75;;;14.76
48003;BMP280;33768;48.578;11.574;2023-05-10T07:47:17;96044.44;;;14.84
48003;BMP280;33768;48.578;11.574;2023-05-10T07:50:22;96046.47;;;15.25
48003;BMP280;33768;48.578;11.574;2023-05-10T07:53:26;96048.84;;;15.62
48003;BMP280;33768;48.578;11.574;2023-05-10T07:56:31;96046.72;;;15.69
48003;BMP280;33768;48.578;11.574;2023-05-10T07:59:36;96058.94;;;15.59
48003;BMP280;33768;48.578;11.574;2023-05-10T08:02:40;96050.78;;;15.68
48003;BMP280;33768;48.578;11.574;2023-05-10T08:05:44;96046.72;;;16.03
48003;BMP280;33768;48.578;11.574;2023-05-10T08:08:49;96050.53;;;16.59
48003;BMP280;33768;48.578;11.574;2023-05-10T08:11:54;96048.75;;;17.25
48003;BMP280;33768;48.578;11.574;2023-05-10T08:14:58;96045.19;;;17.70
48003;BMP280;33768;48.578;11.574;2023-05-10T08:18:02;96043.03;;;18.15
48003;BMP280;33768;48.578;11.574;2023-05-10T08:21:07;96046.34;;;18.72
48003;BMP280;33768;48.578;11.574;2023-05-10T08:24:12;96047.44;;;18.57
48003;BMP280;33768;48.578;11.574;2023-05-10T08:27:16;96043.88;;;18.27
48003;BMP280;33768;48.578;11.574;2023-05-10T08:30:20;96047.09;;;17.77
48003;BMP280;33768;48.578;11.574;2023-05-10T08:33:24;96046.19;;;18.12
48003;BMP280;33768;48.578;11.574;2023-05-10T08:36:29;96044.91;;;18.22
48003;BMP280;33768;48.578;11.574;2023-05-10T08:39:34;96046.84;;;18.49
48003;BMP280;33768;48.578;11.574;2023-05-10T08:42:40;96049.91;;;18.53
48003;BMP280;33768;48.578;11.574;2023-05-10T08:45:48;96059.38;;;18.50
48003;BMP280;33768;48.578;11.574;2023-05-10T08:48:53;96055.94;;;18.22
48003;BMP280;33768;48.578;11.574;2023-05-10T08:51:59;96063.78;;;17.79
48003;BMP280;33768;48.578;11.574;2023-05-10T08:55:05;96066.91;;;17.19
48003;BMP280;33768;48.578;11.574;2023-05-10T08:58:09;96071.59;;;16.64
48003;BMP280;33768;48.578;11.574;2023-05-10T09:01:15;96073.50;;;16.19
48003;BMP280;33768;48.578;11.574;2023-05-10T09:04:20;96062.25;;;15.91
48003;BMP280;33768;48.578;11.574;2023-05-10T09:07:25;96067.03;;;15.57
48003;BMP280;33768;48.578;11.574;2023-05-10T09:10:30;96080.19;;;15.42
48003;BMP280;33768;48.578;11.574;2023-05-10T09:13:35;96069.31;;;15.10
48003;BMP280;33768;48.578;11.574;2023-05-10T09:16:39;96074.75;;;14.94
48003;BMP280;33768;48.578;11.574;2023-05-10T09:19:44;96073.91;;;14.84
48003;BMP280;33768;48.578;11.574;2023-05-10T09:22:49;96087.13;;;14.78
48003;BMP280;33768;48.578;11.574;2023-05-10T09:26:06;96093.03;;;14.74
48003;BMP280;33768;48.578;11.574;2023-05-10T09:29:10;96091.00;;;14.99
48003;BMP280;33768;48.578;11.574;2023-05-10T09:32:15;96091.25;;;15.34
48003;BMP280;33768;48.578;11.574;2023-05-10T09:35:21;96088.66;;;15.61
48003;BMP280;33768;48.578;11.574;2023-05-10T09:38:25;96090.75;;;15.86
48003;BMP280;33768;48.578;11.574;2023-05-10T09:41:30;96088.59;;;16.27
48003;BMP280;33768;48.578;11.574;2023-05-10T09:44:35;96091.75;;;16.41
48003;BMP280;33768;48.578;11.574;2023-05-10T09:47:39;96092.25;;;16.30
48003;BMP280;33768;48.578;11.574;2023-05-10T09:50:43;96087.63;;;16.32
48003;BMP280;33768;48.578;11.574;2023-05-10T09:53:47;96086.19;;;16.15
48003;BMP280;33768;48.578;11.574;2023-05-10T09:56:51;96092.34;;;16.23
48003;BMP280;33768;48.578;11.574;2023-05-10T09:59:55;96088.47;;;16.26
48003;BMP280;33768;48.578;11.574;2023-05-10T10:03:02;96084.47;;;16.36
48003;BMP280;33768;48.578;11.574;2023-05-10T10:06:07;96087.34;;;16.55
48003;BMP280;33768;48.578;11.574;2023-05-10T10:09:11;96083.44;;;16.93
48003;BMP280;33768;48.578;11.574;2023-05-10T10:12:16;96075.19;;;17.38
48003;BMP280;33768;48.578;11.574;2023-05-10T10:15:21;96068.56;;;17.69
48003;BMP280;33768;48.578;11.574;2023-05-10T10:18:26;96069.75;;;17.85
48003;BMP280;33768;48.578;11.574;2023-05-10T10:21:32;96059.97;;;18.98
48003;BMP280;33768;48.578;11.574;2023-05-10T10:24:36;96056.34;;;20.40
48003;BMP280;33768;48.578;11.574;2023-05-10T10:31:01;96064.19;;;20.87
48003;BMP280;33768;48.578;11.574;2023-05-10T10:34:28;96071.84;;;20.02
48003;BMP280;33768;48.578;11.574;2023-05-10T10:37:46;96063.09;;;19.43
48003;BMP280;33768;48.578;11.574;2023-05-10T10:41:10;96058.97;;;19.23
48003;BMP280;33768;48.578;11.574;2023-05-10T10:47:35;96051.06;;;19.50
48003;BMP280;33768;48.578;11.574;2023-05-10T10:50:44;96063.47;;;19.70
48003;BMP280;33768;48.578;11.574;2023-05-10T10:53:49;96059.66;;;19.33
48003;BMP280;33768;48.578;11.574;2023-05-10T10:57:14;96057.50;;;18.92
48003;BMP280;33768;48.578;11.574;2023-05-10T11:03:26;96059.06;;;18.56
48003;BMP280;33768;48.578;11.574;2023-05-10T11:06:34;96052.84;;;18.46
48003;BMP280;33768;48.578;11.574;2023-05-10T11:09:39;96052.97;;;18.57
48003;BMP280;33768;48.578;11.574;2023-05-10T11:19:20;96045.41;;;18.48
48003;BMP280;33768;48.578;11.574;2023-05-10T11:22:24;96038.94;;;18.25
48003;BMP280;33768;48.578;11.574;2023-05-10T11:25:29;96034.13;;;17.98
48003;BMP280;33768;48.578;11.574;2023-05-10T11:28:33;96034.59;;;17.85
48003;BMP280;33768;48.578;11.574;2023-05-10T11:31:43;96049.84;;;17.67
48003;BMP280;33768;48.578;11.574;2023-05-10T11:34:48;96036.31;;;17.53
48003;BMP280;33768;48.578;11.574;2023-05-10T11:37:52;96050.97;;;17.46
48003;BMP280;33768;48.578;11.574;2023-05-10T11:40:56;96046.31;;;17.48
48003;BMP280;33768;48.578;11.574;2023-05-10T11:44:01;96041.84;;;17.53
48003;BMP280;33768;48.578;11.574;2023-05-10T11:47:05;96044.44;;;17.41
48003;BMP280;33768;48.578;11.574;2023-05-10T11:50:11;96046.16;;;17.27
48003;BMP280;33768;48.578;11.574;2023-05-10T11:53:15;96048.97;;;17.01
48003;BMP280;33768;48.578;11.574;2023-05-10T11:56:19;96043.97;;;16.81
48003;BMP280;33768;48.578;11.574;2023-05-10T11:59:24;96043.34;;;16.73
48003;BMP280;33768;48.578;11.574;2023-05-10T12:02:29;96055.50;;;16.70
48003;BMP280;33768;48.578;11.574;2023-05-10T12:05:33;96053.19;;;16.41
48003;BMP280;33768;48.578;11.574;2023-05-10T12:08:44;96063.94;;;16.03
48003;BMP280;33768;48.578;11.574;2023-05-10T12:11:49;96076.56;;;15.90
48003;BMP280;33768;48.578;11.574;2023-05-10T12:14:58;96068.47;;;15.92
48003;BMP280;33768;48.578;11.574;2023-05-10T12:18:03;96068.81;;;15.96
48003;BMP280;33768;48.578;11.574;2023-05-10T12:21:09;96076.09;;;16.00
48003;BMP280;33768;48.578;11.574;2023-05-10T12:24:14;96070.34;;;15.89
48003;BMP280;33768;48.578;11.574;2023-05-10T12:27:22;96075.13;;;15.72
48003;BMP280;33768;48.578;11.574;2023-05-10T12:30:28;96087.94;;;15.60
48003;BMP280;33768;48.578;11.574;2023-05-10T12:33:41;96086.13;;;15.55
48003;BMP280;33768;48.578;11.574;2023-05-10T12:36:50;96087.50;;;15.64
48003;BMP280;33768;48.578;11.574;2023-05-10T12:39:54;96087.03;;;15.58
48003;BMP280;33768;48.578;11.574;2023-05-10T12:42:58;96091.78;;;15.57
48003;BMP280;33768;48.578;11.574;2023-05-10T12:46:10;96097.53;;;15.68
48003;BMP280;33768;48.578;11.574;2023-05-10T12:49:14;96082.56;;;15.79
48003;BMP280;33768;48.578;11.574;2023-05-10T12:52:18;96095.03;;;15.96
48003;BMP280;33768;48.578;11.574;2023-05-10T12:55:22;96093.56;;;16.12
48003;BMP280;33768;48.578;11.574;2023-05-10T12:58:26;96092.13;;;16.28
48003;BMP280;33768;48.578;11.574;2023-05-10T13:01:31;96084.19;;;16.58
48003;BMP280;33768;48.578;11.574;2023-05-10T13:04:35;96086.63;;;16.90
48003;BMP280;33768;48.578;11.574;2023-05-10T13:07:43;96088.34;;;17.21
48003;BMP280;33768;48.578;11.574;2023-05-10T13:10:48;96078.13;;;17.49
48003;BMP280;33768;48.578;11.574;2023-05-10T13:13:52;96084.41;;;17.68
48003;BMP280;33768;48.578;11.574;2023-05-10T13:16:56;96081.50;;;17.76
48003;BMP280;33768;48.578;11.574;2023-05-10T13:20:00;96072.22;;;17.99
48003;BMP280;33768;48.578;11.574;2023-05-10T13:23:04;96067.28;;;18.17
48003;BMP280;33768;48.578;11.574;2023-05-10T13:26:08;96076.88;;;18.25
48003;BMP280;33768;48.578;11.574;2023-05-10T13:29:12;96079.50;;;18.23
48003;BMP280;33768;48.578;11.574;2023-05-10T13:32:17;96078.19;;;18.15
48003;BMP280;33768;48.578;11.574;2023-05-10T13:35:21;96082.56;;;18.08
48003;BMP280;33768;48.578;11.574;2023-05-10T13:38:25;96079.63;;;17.97
48003;BMP280;33768;48.578;11.574;2023-05-10T13:41:29;96087.19;;;17.87
48003;BMP280;33768;48.578;11.574;2023-05-10T13:44:33;96091.94;;;17.49
48003;BMP280;33768;48.578;11.574;2023-05-10T13:47:38;96092.72;;;17.23
48003;BMP280;33768;48.578;11.574;2023-05-10T13:50:42;96083.00;;;17.23
48003;BMP280;33768;48.578;11.574;2023-05-10T13:53:46;96082.25;;;17.13
48003;BMP280;33768;48.578;11.574;2023-05-10T13:56:50;96082.94;;;17.04
48003;BMP280;33768;48.578;11.574;2023-05-10T13:59:54;96082.63;;;17.00
48003;BMP280;33768;48.578;11.574;2023-05-10T14:02:58;96084.69;;;17.09
48003;BMP280;33768;48.578;11.574;2023-05-10T14:06:03;96081.41;;;17.20
48003;BMP280;33768;48.578;11.574;2023-05-10T14:09:07;96068.66;;;17.33
48003;BMP280;33768;48.578;11.574;2023-05-10T14:12:11;96064.88;;;17.38
48003;BMP280;33768;48.578;11.574;2023-05-10T14:15:15;96060.69;;;17.37
48003;BMP280;33768;48.578;11.574;2023-05-10T14:18:19;96063.06;;;17.59
48003;BMP280;33768;48.578;11.574;2023-05-10T14:21:23;96055.34;;;17.86
48003;BMP280;33768;48.578;11.574;2023-05-10T14:24:27;96058.72;;;18.03
48003;BMP280;33768;48.578;11.574;2023-05-10T14:27:31;96064.25;;;18.03
48003;BMP280;33768;48.578;11.574;2023-05-10T14:30:36;96054.38;;;18.10
48003;BMP280;33768;48.578;11.574;2023-05-10T14:33:40;96063.63;;;18.14
48003;BMP280;33768;48.578;11.574;2023-05-10T14:36:44;96065.84;;;18.06
48003;BMP280;33768;48.578;11.574;2023-05-10T14:39:49;96065.66;;;17.85
48003;BMP280;33768;48.578;11.574;2023-05-10T14:42:52;96070.44;;;17.66
48003;BMP280;33768;48.578;11.574;2023-05-10T14:45:57;96075.59;;;17.25
48003;BMP280;33768;48.578;11.574;2023-05-10T14:49:01;96091.47;;;16.72
48003;BMP280;33768;48.578;11.574;2023-05-10T14:52:05;96100.13;;;16.17
48003;BMP280;33768;48.578;11.574;2023-05-10T14:55:09;96109.53;;;15.80
48003;BMP280;33768;48.578;11.574;2023-05-10T14:58:13;96112.06;;;15.28
48003;BMP280;33768;48.578;11.574;2023-05-10T15:01:18;96122.44;;;14.81
48003;BMP280;33768;48.578;11.574;2023-05-10T15:04:22;96121.28;;;14.68
48003;BMP280;33768;48.578;11.574;2023-05-10T15:07:26;96121.88;;;14.59
48003;BMP280;33768;48.578;11.574;2023-05-10T15:10:31;96128.19;;;14.44
48003;BMP280;33768;48.578;11.574;2023-05-10T15:13:35;96123.28;;;14.36
48003;BMP280;33768;48.578;11.574;2023-05-10T15:16:40;96137.72;;;14.36
48003;BMP280;33768;48.578;11.574;2023-05-10T15:19:44;96136.81;;;14.34
48003;BMP280;33768;48.578;11.574;2023-05-10T15:22:48;96140.72;;;14.23
48003;BMP280;33768;48.578;11.574;2023-05-10T15:25:52;96135.81;;;14.14
48003;BMP280;33768;48.578;11.574;2023-05-10T15:28:58;96142.78;;;14.08
48003;BMP280;33768;48.578;11.574;2023-05-10T15:32:03;96145.56;;;14.01
48003;BMP280;33768;48.578;11.574;2023-05-10T15:35:08;96153.06;;;13.93
48003;BMP280;33768;48.578;11.574;2023-05-10T15:38:12;96149.78;;;13.87
48003;BMP280;33768;48.578;11.574;2023-05-10T15:41:15;96153.09;;;13.78
48003;BMP280;33768;48.578;11.574;2023-05-10T15:44:20;96150.19;;;13.76
48003;BMP280;33768;48.578;11.574;2023-05-10T15:47:25;96157.13;;;13.77
48003;BMP280;33768;48.578;11.574;2023-05-10T15:50:29;96146.84;;;13.85
48003;BMP280;33768;48.578;11.574;2023-05-10T15:53:33;96148.16;;;13.84
48003;BMP280;33768;48.578;11.574;2023-05-10T15:56:39;96151.09;;;13.71
48003;BMP280;33768;48.578;11.574;2023-05-10T15:59:43;96150.94;;;13.54
48003;BMP280;33768;48.578;11.574;2023-05-10T16:02:47;96157.88;;;13.48
48003;BMP280;33768;48.578;11.574;2023-05-10T16:05:51;96148.38;;;13.56
48003;BMP280;33768;48.578;11.574;2023-05-10T16:08:55;96152.94;;;13.76
48003;BMP280;33768;48.578;11.574;2023-05-10T16:11:59;96156.19;;;13.89
48003;BMP280;33768;48.578;11.574;2023-05-10T16:15:05;96166.78;;;14.00
48003;BMP280;33768;48.578;11.574;2023-05-10T16:18:09;96168.97;;;14.02
48003;BMP280;33768;48.578;11.574;2023-05-10T16:21:14;96165.69;;;13.88
48003;BMP280;33768;48.578;11.574;2023-05-10T16:24:18;96170.63;;;13.82
48003;BMP280;33768;48.578;11.574;2023-05-10T16:27:22;96185.66;;;13.81
48003;BMP280;33768;48.578;11.574;2023-05-10T16:30:26;96182.19;;;13.66
48003;BMP280;33768;48.578;11.574;2023-05-10T16:33:32;96193.38;;;13.46
48003;BMP280;33768;48.578;11.574;2023-05-10T16:36:36;96200.47;;;13.27
48003;BMP280;33768;48.578;11.574;2023-05-10T16:39:41;96203.91;;;13.05
48003;BMP280;33768;48.578;11.574;2023-05-10T16:42:45;96207.59;;;13.00
48003;BMP280;33768;48.578;11.574;2023-05-10T16:45:49;96205.00;;;13.02
48003;BMP280;33768;48.578;11.574;2023-05-10T16:48:53;96207.00;;;12.94
48003;BMP280;33768;48.578;11.574;2023-05-10T16:51:57;96203.00;;;12.88
48003;BMP280;33768;48.578;11.574;2023-05-10T16:55:03;96215.94;;;12.87
48003;BMP280;33768;48.578;11.574;2023-05-10T16:58:08;96208.63;;;12.82
48003;BMP280;33768;48.578;11.574;2023-05-10T17:01:11;96212.81;;;12.76
48003;BMP280;33768;48.578;11.574;2023-05-10T17:04:15;96210.09;;;12.76
48003;BMP280;33768;48.578;11.574;2023-05-10T17:07:21;96212.94;;;12.63
48003;BMP280;33768;48.578;11.574;2023-05-10T17:10:25;96222.03;;;12.51
48003;BMP280;33768;48.578;11.574;2023-05-10T17:13:29;96225.13;;;12.48
48003;BMP280;33768;48.578;11.574;2023-05-10T17:16:35;96223.06;;;12.41
48003;BMP280;33768;48.578;11.574;2023-05-10T17:19:39;96223.78;;;12.34
48003;BMP280;33768;48.578;11.574;2023-05-10T17:22:47;96226.66;;;12.28
48003;BMP280;33768;48.578;11.574;2023-05-10T17:25:51;96231.75;;;12.24
48003;BMP280;33768;48.578;11.574;2023-05-10T17:28:57;96223.69;;;12.19
48003;BMP280;33768;48.578;11.574;2023-05-10T17:32:01;96228.25;;;12.17
48003;BMP280;33768;48.578;11.574;2023-05-10T17:35:06;96228.25;;;12.17
48003;BMP280;33768;48.578;11.574;2023-05-10T17:38:10;96227.28;;;12.07
48003;BMP280;33768;48.578;11.574;2023-05-10T17:41:14;96229.25;;;11.99
48003;BMP280;33768;48.578;11.574;2023-05-10T17:44:18;96237.84;;;12.03
48003;BMP280;33768;48.578;11.574;2023-05-10T17:47:23;96240.53;;;11.95
48003;BMP280;33768;48.578;11.574;2023-05-10T17:50:27;96243.63;;;11.92
48003;BMP280;33768;48.578;11.574;2023-05-10T17:53:33;96239.34;;;11.84
48003;BMP280;33768;48.578;11.574;2023-05-10T17:56:38;96240.03;;;11.77
48003;BMP280;33768;48.578;11.574;2023-05-10T17:59:42;96240.19;;;11.71
48003;BMP280;33768;48.578;11.574;2023-05-10T18:02:46;96243.69;;;12.07
48003;BMP280;33768;48.578;11.574;2023-05-10T18:05:50;96248.50;;;12.56